Time;durP1;ratioP1;P1;durP2;ratioP2;P2;SDS_P1;SDS_P2;PMS_P1;PMS_P2;Temp;Humidity;BMP_temperature;BMP_pressure;BME280_temperature;BME280_humidity;BME280_pressure;Samples;Min_cycle;Max_cycle;Signal;HPM_P1;HPM_P2
2024/02/14 00:00:33;;;;;;;4.40;2.15;;;6.30;99.90;;;;;;5074710;28;20088;-58
2024/02/14 00:02:58;;;;;;;4.55;2.10;;;6.30;99.90;;;;;;5073824;28;20048;-58
2024/02/14 00:05:26;;;;;;;5.88;2.15;;;6.30;99.90;;;;;;5078422;28;20030;-58
2024/02/14 00:07:51;;;;;;;6.38;2.20;;;6.30;99.90;;;;;;5075884;28;20442;-58
2024/02/14 00:10:17;;;;;;;2.28;1.92;;;6.30;99.90;;;;;;5074089;28;20063;-58
2024/02/14 00:12:42;;;;;;;3.22;2.10;;;6.40;99.90;;;;;;5068140;28;20113;-58
2024/02/14 00:15:09;;;;;;;4.95;2.63;;;6.40;99.90;;;;;;5066275;28;20028;-58
2024/02/14 00:17:35;;;;;;;4.70;1.90;;;6.40;99.90;;;;;;5067830;28;20013;-58
2024/02/14 00:20:02;;;;;;;7.70;1.98;;;6.40;99.90;;;;;;5070084;28;20027;-58
2024/02/14 00:22:28;;;;;;;6.68;2.63;;;6.40;99.90;;;;;;5079839;28;20400;-58
2024/02/14 00:24:54;;;;;;;3.80;2.22;;;6.40;99.90;;;;;;5067357;28;20104;-58
2024/02/14 00:27:19;;;;;;;4.55;2.28;;;6.40;99.90;;;;;;5072955;28;20401;-58
2024/02/14 00:29:46;;;;;;;5.38;2.28;;;6.40;99.90;;;;;;5074189;28;20059;-58
2024/02/14 00:32:13;;;;;;;5.97;2.63;;;6.40;99.90;;;;;;5080206;28;20473;-58
2024/02/14 00:34:38;;;;;;;5.95;2.30;;;6.40;99.90;;;;;;5072589;28;20020;-59
2024/02/14 00:37:04;;;;;;;6.00;1.92;;;6.40;99.90;;;;;;5072642;28;20519;-58
2024/02/14 00:39:29;;;;;;;8.45;2.50;;;6.40;99.90;;;;;;5077826;28;20439;-58
2024/02/14 00:41:55;;;;;;;8.07;2.67;;;6.40;99.90;;;;;;5072873;28;20024;-58
2024/02/14 00:44:21;;;;;;;4.53;2.50;;;6.40;99.90;;;;;;5072371;28;20425;-58
2024/02/14 00:46:48;;;;;;;12.43;2.45;;;6.40;99.90;;;;;;5076241;28;20020;-58
2024/02/14 00:49:14;;;;;;;2.67;2.20;;;6.40;99.90;;;;;;5072487;28;20024;-58
2024/02/14 00:51:39;;;;;;;5.32;2.60;;;6.40;99.90;;;;;;5069285;28;20408;-58
2024/02/14 00:54:06;;;;;;;4.93;2.35;;;6.40;99.90;;;;;;5076667;28;20026;-59
2024/02/14 00:56:32;;;;;;;5.55;2.85;;;6.40;99.90;;;;;;5072186;28;20032;-58
2024/02/14 00:58:57;;;;;;;4.28;2.47;;;6.40;99.90;;;;;;5065838;28;20116;-58
2024/02/14 01:01:23;;;;;;;4.75;1.90;;;6.40;99.90;;;;;;5075679;28;20212;-59
2024/02/14 01:03:48;;;;;;;5.85;2.10;;;6.40;99.90;;;;;;5070733;28;20051;-58
2024/02/14 01:06:15;;;;;;;3.47;2.25;;;6.40;99.90;;;;;;5069648;28;20047;-58
2024/02/14 01:08:41;;;;;;;4.15;2.40;;;6.40;99.90;;;;;;5075751;28;20024;-59
2024/02/14 01:11:07;;;;;;;3.75;2.20;;;6.40;99.90;;;;;;5071131;28;20028;-58
2024/02/14 01:13:33;;;;;;;3.03;1.98;;;6.40;99.90;;;;;;5070592;28;20028;-58
2024/02/14 01:15:58;;;;;;;4.15;2.10;;;6.40;99.90;;;;;;5076061;28;20496;-58
2024/02/14 01:18:24;;;;;;;8.18;2.65;;;6.40;99.90;;;;;;5075441;28;20031;-58
2024/02/14 01:20:50;;;;;;;4.55;2.25;;;6.40;99.90;;;;;;5069850;28;20035;-58
2024/02/14 01:23:16;;;;;;;5.53;2.53;;;6.40;99.90;;;;;;5069194;28;20046;-58
2024/02/14 01:25:42;;;;;;;5.97;2.40;;;6.40;99.90;;;;;;5069134;28;20112;-58
2024/02/14 01:28:08;;;;;;;4.43;2.45;;;6.40;99.90;;;;;;5070708;28;20021;-58
2024/02/14 01:30:35;;;;;;;7.63;2.70;;;6.40;99.90;;;;;;5071377;28;20384;-58
2024/02/14 01:33:03;;;;;;;4.43;2.13;;;6.40;99.90;;;;;;5073232;28;20020;-58
2024/02/14 01:35:30;;;;;;;7.35;2.17;;;6.40;99.90;;;;;;5074845;28;20031;-58
2024/02/14 01:37:55;;;;;;;6.20;2.30;;;6.50;99.90;;;;;;5079696;28;20024;-58
2024/02/14 01:40:21;;;;;;;6.85;2.55;;;6.50;99.90;;;;;;5075125;28;20085;-58
2024/02/14 01:42:47;;;;;;;5.88;2.03;;;6.40;99.90;;;;;;5080562;28;20134;-58
2024/02/14 01:45:12;;;;;;;3.42;2.30;;;6.50;99.90;;;;;;5072356;28;20091;-58
2024/02/14 01:47:41;;;;;;;5.22;2.05;;;6.50;99.90;;;;;;5074828;28;20020;-58
2024/02/14 01:50:10;;;;;;;6.13;2.22;;;6.50;99.90;;;;;;5070429;28;20013;-58
2024/02/14 01:52:36;;;;;;;5.30;2.70;;;6.50;99.90;;;;;;5079768;28;20024;-58
2024/02/14 01:55:04;;;;;;;3.10;2.20;;;6.60;99.90;;;;;;5074328;28;20043;-58
2024/02/14 01:57:31;;;;;;;4.72;2.42;;;6.60;99.90;;;;;;5070235;28;20182;-58
2024/02/14 01:59:58;;;;;;;3.45;2.00;;;6.50;99.90;;;;;;5071903;28;20017;-57
2024/02/14 02:02:26;;;;;;;4.78;1.90;;;6.50;99.90;;;;;;5077022;28;20020;-57
2024/02/14 02:04:51;;;;;;;7.25;2.25;;;6.50;99.90;;;;;;5073818;28;20025;-58
2024/02/14 02:07:19;;;;;;;3.30;2.03;;;6.50;99.90;;;;;;5070080;28;20043;-58
2024/02/14 02:09:45;;;;;;;5.10;2.05;;;6.50;99.90;;;;;;5078950;28;20428;-57
2024/02/14 02:12:10;;;;;;;3.55;2.10;;;6.40;99.90;;;;;;5074111;28;20024;-57
2024/02/14 02:14:36;;;;;;;3.55;1.98;;;6.40;99.90;;;;;;5073996;28;20108;-57
2024/02/14 02:17:05;;;;;;;4.85;2.05;;;6.40;99.90;;;;;;5071755;28;20086;-57
2024/02/14 02:19:32;;;;;;;2.83;2.00;;;6.40;99.90;;;;;;5077860;28;20016;-57
2024/02/14 02:21:59;;;;;;;5.32;2.13;;;6.40;99.90;;;;;;5073497;28;20017;-57
2024/02/14 02:24:24;;;;;;;8.60;2.85;;;6.40;99.90;;;;;;5067141;28;20021;-58
2024/02/14 02:26:50;;;;;;;4.38;2.35;;;6.30;99.90;;;;;;5077494;28;20043;-57
2024/02/14 02:29:16;;;;;;;3.30;2.35;;;6.40;99.90;;;;;;5073337;28;20031;-58
2024/02/14 02:31:41;;;;;;;5.82;2.00;;;6.30;99.90;;;;;;5069174;28;20028;-57
2024/02/14 02:34:10;;;;;;;5.30;1.92;;;6.30;99.90;;;;;;5068513;28;20524;-57
2024/02/14 02:36:37;;;;;;;4.28;2.15;;;6.30;99.90;;;;;;5073522;28;20355;-57
2024/02/14 02:39:04;;;;;;;4.85;2.08;;;6.30;99.90;;;;;;5077805;28;20458;-58
2024/02/14 02:41:31;;;;;;;5.88;2.25;;;6.30;99.90;;;;;;5077322;28;20027;-57
2024/02/14 02:43:57;;;;;;;6.70;2.35;;;6.20;99.90;;;;;;5074521;28;20473;-57
2024/02/14 02:46:23;;;;;;;4.63;2.22;;;6.20;99.90;;;;;;5075784;28;20028;-57
2024/02/14 02:48:48;;;;;;;4.80;2.25;;;6.20;99.90;;;;;;5071575;28;20036;-58
2024/02/14 02:51:17;;;;;;;4.88;2.85;;;6.20;99.90;;;;;;5073241;28;20032;-58
2024/02/14 02:53:43;;;;;;;7.38;2.90;;;6.20;99.90;;;;;;5073127;28;20017;-58
2024/02/14 02:56:08;;;;;;;5.32;2.65;;;6.20;99.90;;;;;;5072764;28;20027;-58
2024/02/14 02:58:34;;;;;;;7.25;2.90;;;6.20;99.90;;;;;;5076649;28;20115;-58
2024/02/14 03:00:59;;;;;;;4.10;3.40;;;6.20;99.90;;;;;;5078209;28;20021;-58
2024/02/14 03:03:27;;;;;;;4.97;2.90;;;6.20;99.90;;;;;;5070464;28;20111;-58
2024/02/14 03:05:53;;;;;;;4.68;2.60;;;6.20;99.90;;;;;;5073270;28;20048;-58
2024/02/14 03:08:19;;;;;;;8.60;2.88;;;6.20;99.90;;;;;;5071482;28;20463;-58
2024/02/14 03:10:45;;;;;;;7.07;3.33;;;6.20;99.90;;;;;;5069143;28;20029;-58
2024/02/14 03:13:14;;;;;;;3.55;2.30;;;6.20;99.90;;;;;;5070890;28;20021;-58
2024/02/14 03:15:39;;;;;;;6.57;2.65;;;6.20;99.90;;;;;;5067449;28;20016;-58
2024/02/14 03:18:09;;;;;;;6.80;2.42;;;6.30;99.90;;;;;;5072493;28;20343;-57
2024/02/14 03:20:35;;;;;;;4.80;2.00;;;6.30;99.90;;;;;;5072216;28;20692;-57
2024/02/14 03:23:03;;;;;;;6.30;2.50;;;6.30;99.90;;;;;;5072321;28;20090;-59
2024/02/14 03:25:29;;;;;;;3.83;2.55;;;6.30;99.90;;;;;;5071978;28;20428;-58
2024/02/14 03:27:56;;;;;;;7.63;2.72;;;6.30;99.90;;;;;;5072082;28;20028;-58
2024/02/14 03:30:22;;;;;;;3.63;2.53;;;6.30;99.90;;;;;;5072788;28;20023;-58
2024/02/14 03:32:49;;;;;;;7.43;2.70;;;6.30;99.90;;;;;;5068347;28;20020;-59
2024/02/14 03:35:15;;;;;;;4.90;2.90;;;6.20;99.90;;;;;;5075202;28;20008;-58
2024/02/14 03:37:43;;;;;;;5.95;2.92;;;6.20;99.90;;;;;;5072252;28;20493;-58
2024/02/14 03:40:09;;;;;;;6.30;3.30;;;6.10;99.90;;;;;;5077877;28;20136;-58
2024/02/14 03:42:35;;;;;;;8.32;3.08;;;6.10;99.90;;;;;;5074535;28;20079;-58
2024/02/14 03:45:05;;;;;;;5.32;3.20;;;6.10;99.90;;;;;;5071291;28;20024;-58
2024/02/14 03:47:34;;;;;;;6.07;3.45;;;6.10;99.90;;;;;;5071479;28;20020;-58
2024/02/14 03:50:04;;;;;;;6.97;3.15;;;6.10;99.90;;;;;;5071523;28;20050;-58
2024/02/14 03:52:32;;;;;;;7.35;3.20;;;6.10;99.90;;;;;;5071281;28;20177;-58
2024/02/14 03:54:58;;;;;;;7.53;3.25;;;6.10;99.90;;;;;;5068256;28;20028;-58
2024/02/14 03:57:25;;;;;;;5.20;3.10;;;6.00;99.90;;;;;;5069911;28;20088;-58
2024/02/14 03:59:52;;;;;;;9.27;3.42;;;6.00;99.90;;;;;;5074336;28;20082;-58
2024/02/14 04:02:18;;;;;;;7.43;3.42;;;6.00;99.90;;;;;;5077325;28;20096;-58
2024/02/14 04:04:46;;;;;;;12.77;4.10;;;6.00;99.90;;;;;;5070782;28;20028;-58
2024/02/14 04:07:12;;;;;;;5.38;2.97;;;6.00;99.90;;;;;;5070701;28;20035;-58
2024/02/14 04:09:37;;;;;;;5.22;3.38;;;6.00;99.90;;;;;;5070918;28;20020;-58
2024/02/14 04:12:03;;;;;;;7.80;3.60;;;6.10;99.90;;;;;;5071010;28;20113;-58
2024/02/14 04:14:29;;;;;;;4.85;3.65;;;6.10;99.90;;;;;;5071600;28;20038;-58
2024/02/14 04:16:55;;;;;;;6.88;3.40;;;6.10;99.90;;;;;;5072214;28;20100;-58
2024/02/14 04:19:20;;;;;;;5.07;3.38;;;6.10;99.90;;;;;;5070923;28;20099;-58
2024/02/14 04:21:46;;;;;;;7.03;4.05;;;6.10;99.90;;;;;;5074331;28;20063;-58
2024/02/14 04:24:12;;;;;;;6.18;3.05;;;6.10;99.90;;;;;;5070786;28;20077;-58
2024/02/14 04:26:38;;;;;;;5.82;3.55;;;6.00;99.90;;;;;;5067500;28;20021;-58
2024/02/14 04:29:03;;;;;;;8.65;3.53;;;6.00;99.90;;;;;;5074703;28;20052;-59
2024/02/14 04:31:32;;;;;;;6.72;3.70;;;6.10;99.90;;;;;;5071737;28;20096;-58
2024/02/14 04:33:58;;;;;;;13.55;3.97;;;6.10;99.90;;;;;;5067389;28;20085;-58
2024/02/14 04:36:24;;;;;;;5.63;3.53;;;6.10;99.90;;;;;;5072272;28;20235;-57
2024/02/14 04:38:50;;;;;;;9.20;3.88;;;6.00;99.90;;;;;;5071542;28;20495;-58
2024/02/14 04:41:16;;;;;;;8.93;4.30;;;6.10;99.90;;;;;;5072924;28;20043;-58
2024/02/14 04:43:41;;;;;;;12.02;4.53;;;6.10;99.90;;;;;;5071573;28;20482;-57
2024/02/14 04:46:08;;;;;;;6.18;4.13;;;6.10;99.90;;;;;;5077395;28;20471;-57
2024/02/14 04:48:35;;;;;;;8.25;3.92;;;6.10;99.90;;;;;;5071688;28;20021;-57
2024/02/14 04:51:00;;;;;;;11.40;4.00;;;6.10;99.90;;;;;;5074673;28;20028;-58
2024/02/14 04:53:27;;;;;;;9.13;5.10;;;6.00;99.90;;;;;;5075486;28;20020;-57
2024/02/14 04:55:53;;;;;;;9.00;3.92;;;6.00;99.90;;;;;;5071091;28;20092;-57
2024/02/14 04:58:19;;;;;;;6.72;4.10;;;6.00;99.90;;;;;;5073945;28;20047;-57
2024/02/14 05:00:45;;;;;;;5.82;3.88;;;6.00;99.90;;;;;;5074097;28;20013;-57
2024/02/14 05:03:11;;;;;;;8.70;3.85;;;6.00;99.90;;;;;;5078709;28;20048;-58
2024/02/14 05:05:37;;;;;;;8.80;4.18;;;6.10;99.90;;;;;;5073747;28;20044;-57
2024/02/14 05:08:03;;;;;;;6.28;3.50;;;6.10;99.90;;;;;;5071762;28;20028;-55
2024/02/14 05:10:29;;;;;;;8.77;3.90;;;6.10;99.90;;;;;;5075238;28;20024;-56
2024/02/14 05:12:54;;;;;;;9.15;4.20;;;6.10;99.90;;;;;;5069408;28;20032;-57
2024/02/14 05:15:20;;;;;;;6.65;3.85;;;6.10;99.90;;;;;;5075914;28;20038;-56
2024/02/14 05:17:46;;;;;;;5.45;3.78;;;6.10;99.90;;;;;;5073402;28;20112;-57
2024/02/14 05:20:12;;;;;;;7.93;4.15;;;6.20;99.90;;;;;;5072954;28;20201;-56
2024/02/14 05:22:38;;;;;;;6.75;4.63;;;6.20;99.90;;;;;;5073831;28;20012;-56
2024/02/14 05:25:04;;;;;;;5.80;3.90;;;6.20;99.90;;;;;;5071129;28;20024;-56
2024/02/14 05:27:31;;;;;;;7.30;4.35;;;6.10;99.90;;;;;;5072457;28;20032;-57
2024/02/14 05:29:57;;;;;;;10.55;4.10;;;6.20;99.90;;;;;;5071470;28;20285;-57
2024/02/14 05:32:23;;;;;;;10.02;5.25;;;6.20;99.90;;;;;;5069766;28;20608;-57
2024/02/14 05:34:49;;;;;;;9.65;4.10;;;6.10;99.90;;;;;;5069942;28;20023;-57
2024/02/14 05:37:14;;;;;;;14.20;4.60;;;6.20;99.90;;;;;;5069222;28;20462;-56
2024/02/14 05:39:40;;;;;;;7.75;4.25;;;6.20;99.90;;;;;;5069343;28;20028;-57
2024/02/14 05:42:06;;;;;;;8.95;4.55;;;6.10;99.90;;;;;;5073154;28;20024;-56
2024/02/14 05:44:31;;;;;;;8.50;4.15;;;6.10;99.90;;;;;;5076498;28;20086;-57
2024/02/14 05:46:57;;;;;;;7.57;4.85;;;6.10;99.90;;;;;;5070714;28;20032;-57
2024/02/14 05:49:23;;;;;;;10.85;5.20;;;6.10;99.90;;;;;;5069883;28;20035;-57
2024/02/14 05:51:50;;;;;;;9.27;4.68;;;6.10;99.90;;;;;;5069973;28;20409;-57
2024/02/14 05:54:16;;;;;;;8.90;4.22;;;6.10;99.90;;;;;;5073681;28;20402;-57
2024/02/14 05:56:41;;;;;;;13.38;5.47;;;6.10;99.90;;;;;;5070055;28;20034;-57
2024/02/14 05:59:07;;;;;;;14.55;5.80;;;6.10;99.90;;;;;;5071334;28;20032;-56
2024/02/14 06:01:33;;;;;;;8.60;4.90;;;6.10;99.90;;;;;;5070448;28;20389;-57
2024/02/14 06:03:59;;;;;;;9.48;5.75;;;6.10;99.90;;;;;;5068386;28;20107;-57
2024/02/14 06:06:24;;;;;;;8.80;5.15;;;6.10;99.90;;;;;;5066549;28;20035;-57
2024/02/14 06:08:50;;;;;;;14.75;6.00;;;6.00;99.90;;;;;;5071942;28;20040;-57
2024/02/14 06:11:16;;;;;;;11.63;5.38;;;6.00;99.90;;;;;;5070788;28;20092;-57
2024/02/14 06:13:41;;;;;;;11.20;6.40;;;6.00;99.90;;;;;;5071558;28;20020;-57
2024/02/14 06:16:08;;;;;;;10.82;6.93;;;6.00;99.90;;;;;;5070128;28;20017;-57
2024/02/14 06:18:35;;;;;;;10.50;5.65;;;6.00;99.90;;;;;;5070043;28;20025;-56
2024/02/14 06:21:00;;;;;;;9.00;5.55;;;6.00;99.90;;;;;;5072059;28;20013;-56
2024/02/14 06:23:26;;;;;;;10.20;5.65;;;6.00;99.90;;;;;;5070216;28;20513;-57
2024/02/14 06:25:53;;;;;;;12.85;6.88;;;6.00;99.90;;;;;;5069937;28;20373;-57
2024/02/14 06:28:18;;;;;;;10.50;6.20;;;6.00;99.90;;;;;;5072038;28;20089;-57
2024/02/14 06:30:44;;;;;;;10.27;5.93;;;6.00;99.90;;;;;;5071762;28;20013;-57
2024/02/14 06:33:09;;;;;;;17.50;8.48;;;6.00;99.90;;;;;;5073547;28;20028;-57
2024/02/14 06:35:35;;;;;;;10.90;5.57;;;6.10;99.90;;;;;;5071452;28;20417;-57
2024/02/14 06:38:00;;;;;;;11.13;6.07;;;6.10;99.90;;;;;;5072211;28;20442;-56
2024/02/14 06:40:27;;;;;;;13.27;5.68;;;6.10;99.90;;;;;;5068892;28;20029;-57
2024/02/14 06:42:54;;;;;;;8.82;5.45;;;6.10;99.90;;;;;;5071453;28;20024;-58
2024/02/14 06:45:20;;;;;;;15.30;7.40;;;6.10;99.90;;;;;;5071107;28;20482;-57
2024/02/14 06:47:45;;;;;;;8.80;5.75;;;6.10;99.90;;;;;;5070795;28;20067;-57
2024/02/14 06:50:11;;;;;;;9.77;6.20;;;6.10;99.90;;;;;;5075389;28;20028;-58
2024/02/14 06:52:36;;;;;;;11.48;7.05;;;6.10;99.90;;;;;;5070169;28;20438;-58
2024/02/14 06:55:03;;;;;;;13.27;6.43;;;6.20;99.90;;;;;;5071927;28;20124;-58
2024/02/14 06:57:29;;;;;;;16.35;7.63;;;6.20;99.90;;;;;;5067711;28;20024;-57
2024/02/14 06:59:54;;;;;;;9.00;6.00;;;6.20;99.90;;;;;;5067830;28;20024;-57
2024/02/14 07:02:21;;;;;;;15.20;6.63;;;6.20;99.90;;;;;;5067560;28;20177;-57
2024/02/14 07:04:46;;;;;;;14.23;7.35;;;6.20;99.90;;;;;;5068012;28;20111;-58
2024/02/14 07:07:12;;;;;;;13.32;6.40;;;6.20;99.90;;;;;;5066953;28;20530;-58
2024/02/14 07:09:39;;;;;;;13.60;6.80;;;6.20;99.90;;;;;;5069982;28;20009;-57
2024/02/14 07:12:04;;;;;;;13.57;6.95;;;6.20;99.90;;;;;;5069693;28;20115;-57
2024/02/14 07:14:31;;;;;;;11.30;6.93;;;6.30;99.90;;;;;;5069766;28;20112;-57
2024/02/14 07:16:56;;;;;;;18.70;7.80;;;6.20;99.90;;;;;;5068682;28;20048;-57
2024/02/14 07:19:22;;;;;;;18.27;7.65;;;6.20;99.90;;;;;;5069585;28;20017;-57
2024/02/14 07:21:47;;;;;;;13.02;6.88;;;6.20;99.90;;;;;;5070091;28;20082;-57
2024/02/14 07:24:13;;;;;;;15.02;7.88;;;6.20;99.90;;;;;;5070828;28;20039;-57
2024/02/14 07:26:41;;;;;;;12.43;7.70;;;6.30;99.90;;;;;;5067515;28;20033;-58
2024/02/14 07:29:06;;;;;;;14.40;7.30;;;6.30;99.90;;;;;;5067954;28;20379;-56
2024/02/14 07:31:34;;;;;;;19.25;7.80;;;6.30;99.90;;;;;;5067801;28;20039;-58
2024/02/14 07:34:02;;;;;;;18.80;7.35;;;6.30;99.90;;;;;;5067207;28;20020;-58
2024/02/14 07:36:29;;;;;;;13.20;7.72;;;6.30;99.90;;;;;;5067538;28;20017;-56
2024/02/14 07:38:54;;;;;;;17.25;7.63;;;6.30;99.90;;;;;;5068514;28;20493;-57
2024/02/14 07:41:20;;;;;;;17.20;8.25;;;6.30;99.90;;;;;;5069582;28;20032;-57
2024/02/14 07:43:45;;;;;;;10.65;6.97;;;6.30;99.90;;;;;;5068086;28;20142;-57
2024/02/14 07:46:12;;;;;;;19.92;8.30;;;6.30;99.90;;;;;;5069107;28;20021;-58
2024/02/14 07:48:37;;;;;;;21.42;8.35;;;6.40;99.90;;;;;;5066132;28;20037;-57
2024/02/14 07:51:07;;;;;;;11.73;7.47;;;6.40;99.90;;;;;;5068419;28;20040;-57
2024/02/14 07:53:33;;;;;;;11.80;7.47;;;6.40;99.90;;;;;;5084138;28;20354;-57
2024/02/14 07:55:58;;;;;;;15.48;8.93;;;6.40;99.90;;;;;;5069995;28;20039;-57
2024/02/14 07:58:24;;;;;;;16.48;8.40;;;6.40;99.90;;;;;;5067666;28;20034;-57
2024/02/14 08:00:49;;;;;;;19.42;9.07;;;6.50;99.90;;;;;;5067907;28;20025;-57
2024/02/14 08:03:15;;;;;;;15.13;8.38;;;6.50;99.90;;;;;;5066909;28;20033;-57
2024/02/14 08:05:42;;;;;;;22.30;8.95;;;6.60;99.90;;;;;;5068254;28;20029;-58
2024/02/14 08:08:08;;;;;;;20.92;9.55;;;6.60;99.90;;;;;;5069838;28;20029;-57
2024/02/14 08:10:33;;;;;;;23.02;9.85;;;6.60;99.90;;;;;;5069247;28;20019;-57
2024/02/14 08:13:00;;;;;;;18.20;8.77;;;6.70;99.90;;;;;;5068568;28;20086;-58
2024/02/14 08:15:26;;;;;;;16.90;8.13;;;6.70;99.90;;;;;;5068454;28;20066;-58
2024/02/14 08:17:55;;;;;;;17.80;9.13;;;6.70;99.90;;;;;;5067427;28;20037;-58
2024/02/14 08:20:21;;;;;;;20.35;9.88;;;6.80;99.90;;;;;;5068616;28;20020;-58
2024/02/14 08:22:46;;;;;;;17.75;8.35;;;6.80;99.90;;;;;;5067603;28;20081;-57
2024/02/14 08:25:12;;;;;;;20.88;9.07;;;6.80;99.90;;;;;;5067070;28;20031;-57
2024/02/14 08:27:37;;;;;;;23.40;8.63;;;6.80;99.90;;;;;;5068132;28;20024;-57
2024/02/14 08:30:06;;;;;;;20.30;8.40;;;6.90;99.90;;;;;;5067165;28;20032;-57
2024/02/14 08:32:33;;;;;;;15.02;8.10;;;6.90;99.90;;;;;;5066419;28;20031;-57
2024/02/14 08:34:58;;;;;;;16.27;8.35;;;7.00;99.90;;;;;;5066333;28;20032;-57
2024/02/14 08:37:24;;;;;;;15.05;8.63;;;7.10;99.90;;;;;;5066976;28;20024;-57
2024/02/14 08:39:50;;;;;;;25.83;9.13;;;7.10;99.90;;;;;;5069027;28;20078;-58
2024/02/14 08:42:16;;;;;;;15.45;8.52;;;7.10;99.90;;;;;;5070171;28;20021;-58
2024/02/14 08:44:41;;;;;;;16.92;9.55;;;7.20;99.90;;;;;;5067611;28;20095;-58
2024/02/14 08:47:07;;;;;;;24.83;9.57;;;7.10;99.90;;;;;;5068617;28;20039;-58
2024/02/14 08:49:33;;;;;;;18.23;9.52;;;7.20;99.90;;;;;;5068081;28;20099;-58
2024/02/14 08:51:59;;;;;;;17.67;8.13;;;7.20;99.90;;;;;;5067687;28;20024;-58
2024/02/14 08:54:24;;;;;;;21.17;7.47;;;7.30;99.90;;;;;;5067199;28;20459;-59
2024/02/14 08:56:53;;;;;;;16.25;8.18;;;7.20;99.90;;;;;;5067657;28;20405;-58
2024/02/14 08:59:19;;;;;;;19.73;7.28;;;7.30;99.90;;;;;;5066912;28;20097;-58
2024/02/14 09:01:45;;;;;;;12.93;6.85;;;7.20;99.90;;;;;;5067472;28;20316;-58
2024/02/14 09:04:11;;;;;;;12.20;6.38;;;7.20;99.90;;;;;;5066983;28;20487;-59
2024/02/14 09:06:39;;;;;;;22.38;7.30;;;7.20;99.90;;;;;;5067754;28;20105;-58
2024/02/14 09:09:04;;;;;;;11.15;6.13;;;7.20;99.90;;;;;;5068041;28;20021;-58
2024/02/14 09:11:31;;;;;;;14.82;6.95;;;7.20;99.90;;;;;;5067094;28;20588;-58
2024/02/14 09:14:02;;;;;;;14.18;6.55;;;7.30;99.90;;;;;;5066849;28;20028;-59
2024/02/14 09:16:28;;;;;;;12.07;6.78;;;7.30;99.90;;;;;;5067324;28;20031;-59
2024/02/14 09:18:53;;;;;;;10.00;5.70;;;7.30;99.90;;;;;;5066172;28;20700;-59
2024/02/14 09:21:19;;;;;;;11.25;6.13;;;7.40;99.90;;;;;;5067367;28;20021;-59
2024/02/14 09:23:47;;;;;;;12.60;6.35;;;7.50;99.90;;;;;;5069129;28;20466;-59
2024/02/14 09:26:12;;;;;;;10.88;6.50;;;7.50;99.90;;;;;;5070847;28;20036;-59
2024/02/14 09:28:40;;;;;;;13.57;5.95;;;7.60;99.90;;;;;;5070366;28;20012;-59
2024/02/14 09:31:06;;;;;;;10.98;5.32;;;7.70;99.90;;;;;;5070580;28;20510;-59
2024/02/14 09:33:31;;;;;;;9.95;5.45;;;7.70;99.90;;;;;;5068848;28;20025;-59
2024/02/14 09:35:57;;;;;;;16.40;6.28;;;7.80;99.90;;;;;;5076733;28;20024;-59
2024/02/14 09:38:22;;;;;;;14.18;5.78;;;7.80;99.90;;;;;;5079707;28;20016;-59
2024/02/14 09:40:53;;;;;;;9.85;5.40;;;7.80;99.90;;;;;;5075574;28;20028;-59
2024/02/14 09:43:33;;;;;;;10.68;5.68;;;7.80;99.90;;;;;;5090202;28;20020;-59
2024/02/14 09:45:59;;;;;;;15.68;5.07;;;7.80;99.90;;;;;;5084475;28;20044;-59
2024/02/14 09:48:26;;;;;;;7.57;4.88;;;7.80;99.90;;;;;;5070425;28;20439;-59
2024/02/14 09:50:53;;;;;;;11.93;5.88;;;7.90;99.90;;;;;;5075533;28;20024;-59
2024/02/14 09:53:20;;;;;;;10.48;5.68;;;7.90;99.90;;;;;;5081364;28;20178;-59
2024/02/14 09:55:46;;;;;;;12.23;5.70;;;7.90;99.90;;;;;;5070099;28;20024;-59
2024/02/14 09:58:12;;;;;;;14.35;5.47;;;8.00;99.90;;;;;;5067503;28;20151;-59
2024/02/14 10:00:38;;;;;;;15.32;7.32;;;8.00;99.90;;;;;;5072706;28;20019;-59
2024/02/14 10:03:04;;;;;;;11.07;5.25;;;8.00;99.90;;;;;;5069880;28;20033;-59
2024/02/14 10:05:29;;;;;;;11.65;5.28;;;8.10;99.90;;;;;;5068852;28;20098;-58
2024/02/14 10:07:57;;;;;;;8.90;5.70;;;8.20;99.90;;;;;;5069995;28;20027;-58
2024/02/14 10:10:23;;;;;;;13.23;6.25;;;8.30;99.90;;;;;;5071182;28;20150;-59
2024/02/14 10:12:48;;;;;;;12.93;6.32;;;8.30;99.90;;;;;;5069991;28;20104;-58
2024/02/14 10:15:14;;;;;;;12.40;6.30;;;8.30;99.90;;;;;;5069432;28;20242;-58
2024/02/14 10:17:43;;;;;;;13.98;6.32;;;8.30;99.90;;;;;;5069579;28;20024;-58
2024/02/14 10:20:09;;;;;;;15.02;6.88;;;8.40;99.90;;;;;;5069822;28;20035;-56
2024/02/14 10:22:36;;;;;;;13.45;6.75;;;8.50;99.90;;;;;;5069763;28;21076;-57
2024/02/14 10:25:03;;;;;;;16.55;6.90;;;8.50;99.90;;;;;;5069293;28;20114;-57
2024/02/14 10:27:32;;;;;;;13.10;6.82;;;8.50;99.90;;;;;;5069205;28;20028;-57
2024/02/14 10:29:59;;;;;;;12.38;6.28;;;8.50;99.90;;;;;;5068145;28;20492;-57
2024/02/14 10:32:25;;;;;;;12.77;6.65;;;8.50;99.90;;;;;;5070112;28;20428;-57
2024/02/14 10:34:51;;;;;;;10.77;6.55;;;8.50;99.90;;;;;;5070648;28;20036;-57
2024/02/14 10:37:18;;;;;;;16.80;7.63;;;8.50;99.90;;;;;;5069934;28;20020;-57
2024/02/14 10:39:46;;;;;;;13.60;6.95;;;8.60;99.90;;;;;;5069611;28;20024;-57
2024/02/14 10:42:13;;;;;;;10.00;6.40;;;8.60;99.90;;;;;;5069183;28;20016;-58
2024/02/14 10:44:38;;;;;;;10.13;5.93;;;8.60;99.90;;;;;;5069557;28;20020;-57
2024/02/14 10:47:10;;;;;;;11.63;6.35;;;8.60;99.90;;;;;;5068886;28;20058;-57
2024/02/14 10:49:38;;;;;;;11.23;6.35;;;8.60;99.90;;;;;;5068805;28;20539;-57
2024/02/14 10:52:06;;;;;;;11.65;6.55;;;8.60;99.90;;;;;;5068424;28;20020;-57
2024/02/14 10:54:35;;;;;;;10.05;5.82;;;8.50;99.90;;;;;;5070696;28;20024;-57
2024/02/14 10:57:11;;;;;;;11.70;6.07;;;8.60;99.90;;;;;;5072002;28;20094;-57
2024/02/14 10:59:42;;;;;;;10.48;5.55;;;8.60;99.90;;;;;;5069289;28;20517;-57
2024/02/14 11:02:08;;;;;;;13.25;6.93;;;8.60;99.90;;;;;;5066402;28;20016;-57
2024/02/14 11:04:33;;;;;;;10.63;6.63;;;8.60;99.90;;;;;;5070156;28;20062;-57
2024/02/14 11:07:02;;;;;;;13.00;6.80;;;8.60;99.90;;;;;;5069641;28;20060;-57
2024/02/14 11:09:36;;;;;;;11.95;6.65;;;8.60;99.90;;;;;;5071260;28;20028;-58
2024/02/14 11:12:02;;;;;;;14.05;7.25;;;8.60;99.90;;;;;;5071436;28;20056;-57
2024/02/14 11:14:35;;;;;;;13.85;8.43;;;8.60;99.90;;;;;;5068548;28;20059;-58
2024/02/14 11:17:02;;;;;;;12.70;8.18;;;8.60;99.90;;;;;;5076203;28;20017;-57
2024/02/14 11:19:35;;;;;;;15.98;7.53;;;8.60;99.90;;;;;;5076848;28;20024;-57
2024/02/14 11:22:13;;;;;;;11.90;7.88;;;8.70;99.90;;;;;;5081301;28;20020;-57
2024/02/14 11:24:39;;;;;;;14.77;7.80;;;8.80;99.90;;;;;;5073123;28;20532;-56
2024/02/14 11:27:11;;;;;;;13.13;7.70;;;8.90;99.90;;;;;;5081884;28;20067;-57
2024/02/14 11:29:40;;;;;;;9.85;6.40;;;8.90;99.90;;;;;;5079511;28;20517;-57
2024/02/14 11:32:09;;;;;;;11.35;8.13;;;8.90;99.90;;;;;;5082546;28;20461;-57
2024/02/14 11:34:35;;;;;;;10.80;7.13;;;9.20;99.90;;;;;;5076334;28;20545;-57
2024/02/14 11:37:00;;;;;;;13.15;6.82;;;9.40;99.90;;;;;;5075552;28;20028;-58
2024/02/14 11:39:26;;;;;;;9.88;6.07;;;9.50;99.90;;;;;;5067991;28;20112;-57
2024/02/14 11:41:51;;;;;;;11.38;6.97;;;9.50;99.90;;;;;;5068396;28;20385;-57
2024/02/14 11:44:22;;;;;;;9.00;6.18;;;9.70;99.90;;;;;;5082293;28;20024;-57
2024/02/14 11:46:47;;;;;;;9.13;5.15;;;9.90;99.90;;;;;;5082075;28;20029;-57
2024/02/14 11:49:13;;;;;;;6.65;5.25;;;9.90;99.90;;;;;;5080382;28;20039;-56
2024/02/14 11:51:40;;;;;;;7.80;4.30;;;9.90;99.90;;;;;;5067850;28;20117;-57
2024/02/14 11:54:06;;;;;;;11.27;4.80;;;9.80;99.90;;;;;;5074159;28;20020;-57
2024/02/14 11:56:39;;;;;;;6.88;4.93;;;9.70;99.90;;;;;;5074095;28;20443;-57
2024/02/14 11:59:07;;;;;;;7.20;4.28;;;9.70;99.90;;;;;;5079389;28;20033;-56
2024/02/14 12:01:37;;;;;;;8.80;5.00;;;9.60;99.90;;;;;;5074663;28;20024;-57
2024/02/14 12:04:04;;;;;;;9.73;5.05;;;9.60;99.90;;;;;;5072347;28;20418;-57
2024/02/14 12:06:34;;;;;;;10.18;5.20;;;9.70;99.90;;;;;;5068630;28;20103;-57
2024/02/14 12:09:09;;;;;;;8.20;4.83;;;9.60;99.90;;;;;;5074181;28;20068;-57
2024/02/14 12:11:39;;;;;;;8.82;5.43;;;9.60;99.90;;;;;;5075482;28;20024;-57
2024/02/14 12:14:09;;;;;;;9.98;5.18;;;9.70;99.90;;;;;;5078593;28;20036;-57
2024/02/14 12:16:36;;;;;;;7.50;5.40;;;9.60;99.90;;;;;;5075229;28;20020;-57
2024/02/14 12:19:11;;;;;;;7.57;4.75;;;9.60;99.90;;;;;;5079706;28;20041;-57
2024/02/14 12:21:39;;;;;;;9.18;4.53;;;9.70;99.90;;;;;;5067732;28;20025;-57
2024/02/14 12:24:08;;;;;;;7.18;4.82;;;9.70;99.90;;;;;;5076367;28;20023;-57
2024/02/14 12:26:38;;;;;;;7.43;5.33;;;9.70;99.90;;;;;;5073383;28;20021;-57
2024/02/14 12:29:05;;;;;;;6.30;4.50;;;9.90;99.90;;;;;;5072900;28;20438;-57
2024/02/14 12:31:30;;;;;;;7.65;5.45;;;9.90;99.90;;;;;;5067487;28;20035;-57
2024/02/14 12:33:59;;;;;;;7.28;4.60;;;9.90;99.90;;;;;;5074639;28;20393;-58
2024/02/14 12:36:25;;;;;;;7.60;4.70;;;9.90;99.90;;;;;;5069224;28;20021;-58
2024/02/14 12:38:52;;;;;;;10.90;4.60;;;9.80;99.90;;;;;;5067100;28;20095;-58
2024/02/14 12:41:18;;;;;;;8.95;4.38;;;9.90;99.90;;;;;;5065967;28;20028;-58
2024/02/14 12:43:44;;;;;;;5.40;4.50;;;10.00;99.90;;;;;;5067089;28;20112;-58
2024/02/14 12:46:10;;;;;;;6.57;4.10;;;10.10;99.90;;;;;;5072904;28;20028;-58
2024/02/14 12:48:35;;;;;;;6.70;4.53;;;10.10;99.90;;;;;;5075023;28;20313;-58